• Join FlightAware (Why Join?)
  • Login
  • US Flag 
05:04PM EDT


 

Airport Tracker/Info


-or-


 

Live Flight TrackerFlight Track Log ✈ SKW6377 ✈ 19-Apr-2013 ✈ KDEN - KCPR

Flight Track Log - Related Links

Times and Time Zones

All times are in EDT time to prevent confusion due to time zone crossing. See the SKW6377 flight status page for this flight to view local times or setup timezone preferences in your user account.

Time Position Orientation Groundspeed Altitude Reporting Facility
EDT Latitude Longitude Course Direction KTS MPH feet Rate Location/Type
01:31PM 39.8500 -104.7500 346° North 163 188 6,900  Level Denver TRACON
01:32PM 39.8833 -104.7833 323° Northwest 235 270 9,000 2,040 Climbing Denver TRACON
01:33PM 39.9500 -104.7833 360° North 276 318 10,900 2,040 Climbing Denver TRACON
01:34PM 39.9833 -104.7931 347° North 281 323 11,500 2,460 Climbing Denver Center
01:35PM 40.2484 -104.7962 347° North  Level FlightAware Approximate
01:35PM 40.0672 -104.7850 North 312 359 14,200  Level Denver Center
01:36PM 40.3484 -104.8272 346° North  Level FlightAware Approximate
01:36PM 40.1447 -104.7317 28° Northeast 315 362 16,500  Level Denver Center
01:37PM 40.4481 -104.8604 346° North  Level FlightAware Approximate
01:37PM 40.2378 -104.7472 353° North 311 358 18,800  Level Denver Center
01:38PM 40.3269 -104.7653 351° North 325 374 20,500 1,500 Climbing Denver Center
01:39PM 40.4225 -104.7847 351° North 322 371 21,900 1,260 Climbing Denver Center
01:40PM 40.5183 -104.8017 352° North 346 398 23,200 1,200 Climbing Denver Center
01:41PM 40.6119 -104.8214 351° North 336 387 24,400 1,080 Climbing Denver Center
01:42PM 40.7097 -104.8400 352° North 347 399 25,500 720 Climbing Denver Center
01:43PM 40.8083 -104.8606 351° North 356 410 26,000 240 Climbing Denver Center
01:44PM 40.9061 -104.9125 338° Northwest 370 426 26,000  Level Denver Center
01:45PM 41.0244 -104.9669 341° North 390 449 26,000  Level Denver Center
01:46PM 41.1250 -105.0175 339° North 400 460 26,000  Level Denver Center
01:47PM 41.2386 -105.0753 339° North 393 452 26,000  Level Denver Center
01:48PM 41.3339 -105.1214 340° North 385 443 26,000  Level Denver Center
01:49PM 41.4267 -105.1672 340° North 374 430 26,000  Level Denver Center
01:50PM 41.5319 -105.2197 340° North 363 418 26,000  Level Denver Center
01:51PM 41.6219 -105.2761 335° Northwest 370 426 26,000  Level Denver Center
01:52PM 41.7250 -105.3425 334° Northwest 368 423 26,000  Level Denver Center
01:53PM 41.8136 -105.4022 333° Northwest 372 428 26,000  Level Denver Center
01:54PM 41.9183 -105.4722 334° Northwest 376 433 26,000  Level Denver Center
01:55PM 42.0103 -105.5336 334° Northwest 382 440 26,000 -120 Level Denver Center
01:56PM 42.1147 -105.6044 333° Northwest 376 433 25,800 -900 Descending Denver Center
01:57PM 42.2064 -105.6675 333° Northwest 384 442 24,200 -1,620 Descending Denver Center
01:58PM 42.2969 -105.7281 334° Northwest 380 437 22,500 -1,800 Descending Denver Center
01:59PM 42.3989 -105.7978 333° Northwest 368 423 20,600 -1,740 Descending Denver Center
02:00PM 42.4844 -105.8561 333° Northwest 360 414 19,000 -1,680 Descending Denver Center
02:01PM 42.5744 -105.9306 329° Northwest 349 402 17,200 -1,860 Descending Denver Center
02:02PM 42.6264 -106.0139 310° West 315 362 15,200 -2,160 Descending Denver Center
02:03PM 42.6867 -106.1061 312° West 299 344 12,800 -1,980 Descending Denver Center
02:04PM 42.7339 -106.1828 310° West 288 331 11,200 -1,500 Descending Denver Center
02:06PM 42.7867 -106.2642 311° West 270 311 9,700 -1,320 Descending Denver Center
02:07PM 42.8228 -106.3200 311° West 227 261 8,500 -1,320 Descending Denver Center
02:08PM 42.8919 -106.3383 349° North 225 259 7,100 -780 Descending Denver Center
02:09PM 42.9461 -106.3542 348° North 219 252 6,900 -240 Descending Denver Center